Time;durP1;ratioP1;P1;durP2;ratioP2;P2;SDS_P1;SDS_P2;PMS_P1;PMS_P2;Temp;Humidity;BMP_temperature;BMP_pressure;BME280_temperature;BME280_humidity;BME280_pressure;Samples;Min_cycle;Max_cycle;Signal;HPM_P1;HPM_P2
2023/08/13 00:01:24;;;;;;;0.10;0.10;;;;;;;;;;10402152;28;20033;-62
2023/08/13 00:06:24;;;;;;;0.10;0.10;;;;;;;;;;10403379;28;20660;-62
2023/08/13 00:11:24;;;;;;;0.10;0.10;;;;;;;;;;10407982;28;20128;-61
2023/08/13 00:16:24;;;;;;;0.10;0.10;;;;;;;;;;10407954;28;20781;-60
2023/08/13 00:21:24;;;;;;;0.10;0.10;;;;;;;;;;10398277;28;20045;-61
2023/08/13 00:26:25;;;;;;;0.10;0.10;;;;;;;;;;10401357;28;20048;-60
2023/08/13 00:31:25;;;;;;;0.10;0.10;;;;;;;;;;10397838;28;20060;-62
2023/08/13 00:36:25;;;;;;;0.10;0.10;;;;;;;;;;10400013;28;20140;-61
2023/08/13 00:41:25;;;;;;;0.00;0.00;;;;;;;;;;10399359;28;20060;-61
2023/08/13 00:46:26;;;;;;;0.10;0.10;;;;;;;;;;10403591;28;20487;-61
2023/08/13 00:51:26;;;;;;;0.10;0.10;;;;;;;;;;10405415;28;20022;-61
2023/08/13 00:56:26;;;;;;;0.10;0.10;;;;;;;;;;10408219;28;20013;-61
2023/08/13 01:01:27;;;;;;;0.10;0.10;;;;;;;;;;10402320;28;20025;-62
2023/08/13 01:06:33;;;;;;;0.10;0.10;;;;;;;;;;10402819;28;20321;-61
2023/08/13 01:11:45;;;;;;;0.10;0.10;;;;;;;;;;10401247;28;20022;-60
2023/08/13 01:16:46;;;;;;;0.10;0.10;;;;;;;;;;10397310;28;20087;-61
2023/08/13 01:21:46;;;;;;;0.00;0.00;;;;;;;;;;10397790;28;20080;-62
2023/08/13 01:26:49;;;;;;;0.10;0.10;;;;;;;;;;10400011;28;20045;-62
2023/08/13 01:31:51;;;;;;;0.00;0.00;;;;;;;;;;10409400;28;20025;-61
2023/08/13 01:36:52;;;;;;;0.10;0.10;;;;;;;;;;10404963;28;20009;-62
2023/08/13 01:41:54;;;;;;;0.00;0.00;;;;;;;;;;10409408;28;20025;-61
2023/08/13 01:46:54;;;;;;;0.00;0.00;;;;;;;;;;10408792;28;20524;-59
2023/08/13 01:51:54;;;;;;;0.10;0.10;;;;;;;;;;10400931;28;20105;-62
2023/08/13 01:56:55;;;;;;;0.10;0.10;;;;;;;;;;10396458;28;20128;-62
2023/08/13 02:01:55;;;;;;;0.10;0.10;;;;;;;;;;10397631;28;20018;-62
2023/08/13 02:06:55;;;;;;;0.00;0.00;;;;;;;;;;10395150;28;20072;-60
2023/08/13 02:11:55;;;;;;;0.03;0.03;;;;;;;;;;10396506;28;20021;-60
2023/08/13 02:16:55;;;;;;;0.10;0.10;;;;;;;;;;10395884;28;20148;-62
2023/08/13 02:21:55;;;;;;;0.00;0.00;;;;;;;;;;10392500;28;20032;-62
2023/08/13 02:26:56;;;;;;;0.10;0.10;;;;;;;;;;10394494;28;20033;-62
2023/08/13 02:31:56;;;;;;;0.10;0.10;;;;;;;;;;10398741;28;20078;-62
2023/08/13 02:36:56;;;;;;;0.10;0.10;;;;;;;;;;10394280;28;20029;-62
2023/08/13 02:41:56;;;;;;;0.10;0.10;;;;;;;;;;10396654;28;20022;-61
2023/08/13 02:46:57;;;;;;;0.10;0.10;;;;;;;;;;10392622;28;20060;-62
2023/08/13 02:51:57;;;;;;;0.10;0.10;;;;;;;;;;10393411;28;20037;-60
2023/08/13 02:56:59;;;;;;;0.10;0.10;;;;;;;;;;10392147;28;20071;-61
2023/08/13 03:01:59;;;;;;;0.10;0.10;;;;;;;;;;10397448;28;20461;-61
2023/08/13 03:06:59;;;;;;;0.10;0.10;;;;;;;;;;10397785;28;20017;-62
2023/08/13 03:12:00;;;;;;;0.10;0.10;;;;;;;;;;10391398;28;20026;-62
2023/08/13 03:17:00;;;;;;;0.10;0.10;;;;;;;;;;10392424;28;20384;-61
2023/08/13 03:22:00;;;;;;;0.10;0.10;;;;;;;;;;10398140;28;20037;-62
2023/08/13 03:27:00;;;;;;;0.10;0.10;;;;;;;;;;10396909;28;20531;-61
2023/08/13 03:32:00;;;;;;;0.03;0.03;;;;;;;;;;10395878;28;20127;-61
2023/08/13 03:37:01;;;;;;;0.13;0.13;;;;;;;;;;10398107;28;20319;-62
2023/08/13 03:42:01;;;;;;;0.10;0.10;;;;;;;;;;10396871;28;20025;-62
2023/08/13 03:47:01;;;;;;;0.10;0.10;;;;;;;;;;10394805;28;20287;-62
2023/08/13 03:52:01;;;;;;;0.10;0.10;;;;;;;;;;10369370;22;20125;-66
2023/08/13 03:57:02;;;;;;;0.10;0.10;;;;;;;;;;10250611;28;20056;-64
2023/08/13 04:02:02;;;;;;;0.10;0.10;;;;;;;;;;10248693;28;20057;-66
2023/08/13 04:07:03;;;;;;;0.10;0.10;;;;;;;;;;10249517;28;20506;-66
2023/08/13 04:12:03;;;;;;;0.10;0.10;;;;;;;;;;10247852;28;20098;-66
2023/08/13 04:17:03;;;;;;;0.10;0.10;;;;;;;;;;10250944;28;20023;-66
2023/08/13 04:22:04;;;;;;;0.10;0.10;;;;;;;;;;10248892;28;20027;-66
2023/08/13 04:27:04;;;;;;;0.00;0.00;;;;;;;;;;10250280;28;20027;-64
2023/08/13 04:32:04;;;;;;;0.00;0.00;;;;;;;;;;10249864;28;20039;-64
2023/08/13 04:37:05;;;;;;;0.10;0.10;;;;;;;;;;10249019;28;20105;-64
2023/08/13 04:42:05;;;;;;;0.10;0.10;;;;;;;;;;10256921;28;20030;-64
2023/08/13 04:47:05;;;;;;;0.10;0.10;;;;;;;;;;10252292;28;20073;-64
2023/08/13 04:52:05;;;;;;;0.10;0.10;;;;;;;;;;10254271;28;20030;-64
2023/08/13 04:57:06;;;;;;;0.10;0.10;;;;;;;;;;10253490;28;20031;-65
2023/08/13 05:02:06;;;;;;;0.00;0.00;;;;;;;;;;10259876;28;20130;-64
2023/08/13 05:07:06;;;;;;;0.10;0.10;;;;;;;;;;10260602;28;20035;-64
2023/08/13 05:12:07;;;;;;;0.10;0.10;;;;;;;;;;10253335;28;20495;-64
2023/08/13 05:17:16;;;;;;;0.00;0.00;;;;;;;;;;10250045;28;20027;-65
2023/08/13 05:22:16;;;;;;;0.00;0.00;;;;;;;;;;10247088;28;20039;-64
2023/08/13 05:27:16;;;;;;;0.00;0.00;;;;;;;;;;10251044;28;20023;-62
2023/08/13 05:32:16;;;;;;;0.05;0.05;;;;;;;;;;10250481;28;20042;-64
2023/08/13 05:37:17;;;;;;;0.10;0.10;;;;;;;;;;10249353;28;20030;-64
2023/08/13 05:42:17;;;;;;;0.10;0.10;;;;;;;;;;10249834;28;20023;-64
2023/08/13 05:47:17;;;;;;;0.00;0.00;;;;;;;;;;10249262;28;20027;-64
2023/08/13 05:52:17;;;;;;;0.00;0.00;;;;;;;;;;10251567;28;20453;-64
2023/08/13 05:57:17;;;;;;;0.10;0.10;;;;;;;;;;10247910;28;20031;-64
2023/08/13 06:02:18;;;;;;;0.00;0.00;;;;;;;;;;10249089;28;20031;-64
2023/08/13 06:07:18;;;;;;;0.10;0.10;;;;;;;;;;10247826;28;20042;-65
2023/08/13 06:12:18;;;;;;;0.00;0.00;;;;;;;;;;10248116;28;20027;-64
2023/08/13 06:17:18;;;;;;;0.10;0.10;;;;;;;;;;10245674;28;20098;-66
2023/08/13 06:22:19;;;;;;;0.10;0.10;;;;;;;;;;10249841;28;20027;-66
2023/08/13 06:27:21;;;;;;;0.10;0.10;;;;;;;;;;10247944;28;20043;-66
2023/08/13 06:32:21;;;;;;;0.10;0.10;;;;;;;;;;10247616;28;20549;-66
2023/08/13 06:37:21;;;;;;;0.10;0.10;;;;;;;;;;10246935;28;20094;-66
2023/08/13 06:42:21;;;;;;;0.10;0.10;;;;;;;;;;10244177;28;20027;-66
2023/08/13 06:47:22;;;;;;;0.10;0.10;;;;;;;;;;10243193;28;20126;-66
2023/08/13 06:52:24;;;;;;;0.00;0.00;;;;;;;;;;10245742;28;20082;-65
2023/08/13 06:57:24;;;;;;;0.10;0.10;;;;;;;;;;10249500;28;20034;-65
2023/08/13 07:02:24;;;;;;;0.10;0.10;;;;;;;;;;10250645;28;20030;-65
2023/08/13 07:07:25;;;;;;;0.10;0.10;;;;;;;;;;10251464;28;20459;-66
2023/08/13 07:12:26;;;;;;;0.10;0.10;;;;;;;;;;10248323;28;20031;-66
2023/08/13 07:17:26;;;;;;;0.10;0.10;;;;;;;;;;10246087;28;20390;-66
2023/08/13 07:22:27;;;;;;;0.10;0.10;;;;;;;;;;10246921;28;20031;-66
2023/08/13 07:27:27;;;;;;;0.10;0.10;;;;;;;;;;10244908;28;20048;-66
2023/08/13 07:32:29;;;;;;;0.10;0.10;;;;;;;;;;10250253;28;20402;-66
2023/08/13 07:37:29;;;;;;;0.10;0.10;;;;;;;;;;10242896;28;20034;-65
2023/08/13 07:42:29;;;;;;;0.10;0.10;;;;;;;;;;10245403;28;20031;-66
2023/08/13 07:47:29;;;;;;;0.10;0.10;;;;;;;;;;10245020;28;20474;-65
2023/08/13 07:52:34;;;;;;;0.10;0.10;;;;;;;;;;10244533;28;20037;-66
2023/08/13 07:57:34;;;;;;;0.10;0.10;;;;;;;;;;10244660;28;20023;-66
2023/08/13 08:02:34;;;;;;;0.10;0.10;;;;;;;;;;10241974;28;20487;-67
2023/08/13 08:07:35;;;;;;;0.10;0.10;;;;;;;;;;10243796;28;20031;-67
2023/08/13 08:12:35;;;;;;;0.10;0.10;;;;;;;;;;10248445;28;20049;-67
2023/08/13 08:17:37;;;;;;;0.08;0.08;;;;;;;;;;10252197;28;20062;-67
2023/08/13 08:22:37;;;;;;;0.08;0.08;;;;;;;;;;10252461;28;20027;-66
2023/08/13 08:27:37;;;;;;;0.10;0.10;;;;;;;;;;10246811;28;20015;-67
2023/08/13 08:32:37;;;;;;;0.10;0.10;;;;;;;;;;10252593;28;20584;-66
2023/08/13 08:37:38;;;;;;;0.10;0.10;;;;;;;;;;10246440;28;20506;-67
2023/08/13 08:42:39;;;;;;;0.10;0.10;;;;;;;;;;10249018;28;20487;-66
2023/08/13 08:47:40;;;;;;;;;;;;;;;;;;10249309;28;20047;-67
2023/08/13 08:52:41;;;;;;;0.10;0.10;;;;;;;;;;10248906;28;19915;-67
2023/08/13 08:57:41;;;;;;;0.10;0.10;;;;;;;;;;10253268;28;20027;-66
2023/08/13 09:02:43;;;;;;;0.10;0.10;;;;;;;;;;10253147;28;20476;-66
2023/08/13 09:07:43;;;;;;;0.10;0.10;;;;;;;;;;10250548;28;20024;-66
2023/08/13 09:12:43;;;;;;;0.00;0.00;;;;;;;;;;10249876;28;20031;-65
2023/08/13 09:17:43;;;;;;;0.00;0.00;;;;;;;;;;10249938;28;20495;-66
2023/08/13 09:22:45;;;;;;;0.10;0.10;;;;;;;;;;10251821;28;20034;-66
2023/08/13 09:27:46;;;;;;;0.10;0.10;;;;;;;;;;10252734;28;20430;-67
2023/08/13 09:32:46;;;;;;;0.10;0.10;;;;;;;;;;10247252;28;20094;-66
2023/08/13 09:37:46;;;;;;;0.10;0.10;;;;;;;;;;10250758;28;20251;-67
2023/08/13 09:42:48;;;;;;;0.00;0.00;;;;;;;;;;10247847;28;20035;-66
2023/08/13 09:47:49;;;;;;;0.10;0.10;;;;;;;;;;10248704;28;20297;-66
2023/08/13 09:52:50;;;;;;;0.03;0.03;;;;;;;;;;10246569;28;20038;-67
2023/08/13 09:57:50;;;;;;;0.00;0.00;;;;;;;;;;10245365;28;20042;-65
2023/08/13 10:02:51;;;;;;;0.10;0.10;;;;;;;;;;10248822;28;20110;-67
2023/08/13 10:07:51;;;;;;;0.05;0.05;;;;;;;;;;10248280;28;20019;-67
2023/08/13 10:12:51;;;;;;;0.00;0.00;;;;;;;;;;10246152;28;20035;-67
2023/08/13 10:17:52;;;;;;;0.00;0.00;;;;;;;;;;10245331;28;20110;-67
2023/08/13 10:22:52;;;;;;;0.10;0.10;;;;;;;;;;10247151;28;20031;-67
2023/08/13 10:27:53;;;;;;;0.10;0.10;;;;;;;;;;10249740;28;20372;-67
2023/08/13 10:32:54;;;;;;;0.00;0.00;;;;;;;;;;10246825;28;20025;-66
2023/08/13 10:37:59;;;;;;;0.10;0.10;;;;;;;;;;10247954;28;20125;-67
2023/08/13 10:43:00;;;;;;;0.00;0.00;;;;;;;;;;10241642;28;20020;-66
2023/08/13 10:48:01;;;;;;;0.00;0.00;;;;;;;;;;10246699;28;20015;-66
2023/08/13 10:53:10;;;;;;;0.00;0.00;;;;;;;;;;10251620;28;20043;-67
2023/08/13 10:58:27;;;;;;;0.10;0.10;;;;;;;;;;10249222;28;20026;-67
2023/08/13 11:03:29;;;;;;;0.00;0.00;;;;;;;;;;10247968;28;20482;-66
2023/08/13 11:08:29;;;;;;;0.10;0.10;;;;;;;;;;10246564;28;20069;-66
2023/08/13 11:13:31;;;;;;;0.00;0.00;;;;;;;;;;10245501;28;20051;-66
2023/08/13 11:18:31;;;;;;;0.10;0.10;;;;;;;;;;10245756;28;20038;-66
2023/08/13 11:23:31;;;;;;;0.00;0.00;;;;;;;;;;10250509;28;20023;-66
2023/08/13 11:28:32;;;;;;;0.10;0.10;;;;;;;;;;10241724;28;20011;-66
2023/08/13 11:33:32;;;;;;;0.10;0.10;;;;;;;;;;10247918;28;20069;-66
2023/08/13 11:38:32;;;;;;;0.10;0.10;;;;;;;;;;10245813;28;20022;-66
2023/08/13 11:43:33;;;;;;;0.08;0.08;;;;;;;;;;10245228;28;20395;-66
2023/08/13 11:48:36;;;;;;;0.05;0.05;;;;;;;;;;10250645;28;20020;-66
2023/08/13 11:53:45;;;;;;;0.10;0.10;;;;;;;;;;10255245;28;20035;-67
2023/08/13 11:58:46;;;;;;;0.00;0.00;;;;;;;;;;10251892;28;20031;-66
2023/08/13 12:03:46;;;;;;;0.00;0.00;;;;;;;;;;10254842;28;20031;-66
2023/08/13 12:08:46;;;;;;;0.10;0.10;;;;;;;;;;10252720;28;20023;-66
2023/08/13 12:13:46;;;;;;;0.10;0.10;;;;;;;;;;10252599;28;20403;-67
2023/08/13 12:18:47;;;;;;;0.10;0.10;;;;;;;;;;10252066;28;20027;-66
2023/08/13 12:23:47;;;;;;;0.00;0.00;;;;;;;;;;10255673;28;20082;-66
2023/08/13 12:28:50;;;;;;;0.00;0.00;;;;;;;;;;10256387;28;20024;-66
2023/08/13 12:33:53;;;;;;;0.00;0.00;;;;;;;;;;10251632;28;20106;-68
2023/08/13 12:38:53;;;;;;;0.05;0.05;;;;;;;;;;10251849;28;20475;-66
2023/08/13 12:43:54;;;;;;;0.10;0.10;;;;;;;;;;10251262;28;20027;-66
2023/08/13 12:48:54;;;;;;;0.00;0.00;;;;;;;;;;10251654;28;20019;-66
2023/08/13 12:53:54;;;;;;;0.05;0.05;;;;;;;;;;10254654;28;20054;-66
2023/08/13 12:58:54;;;;;;;0.08;0.08;;;;;;;;;;10249397;28;20035;-67
2023/08/13 13:03:54;;;;;;;0.10;0.10;;;;;;;;;;10250444;28;20490;-67
2023/08/13 13:08:54;;;;;;;0.00;0.00;;;;;;;;;;10250565;28;20019;-66
2023/08/13 13:13:56;;;;;;;0.00;0.00;;;;;;;;;;10250517;28;20118;-65
2023/08/13 13:18:56;;;;;;;0.10;0.10;;;;;;;;;;10247764;28;20022;-66
2023/08/13 13:23:57;;;;;;;0.10;0.10;;;;;;;;;;10251399;28;20467;-66
2023/08/13 13:28:57;;;;;;;0.10;0.10;;;;;;;;;;10249879;28;20015;-67
2023/08/13 13:33:57;;;;;;;0.00;0.00;;;;;;;;;;10250582;28;20023;-67
2023/08/13 13:38:57;;;;;;;0.10;0.10;;;;;;;;;;10249334;28;20022;-65
2023/08/13 13:43:58;;;;;;;0.05;0.05;;;;;;;;;;10249472;28;20015;-66
2023/08/13 13:48:58;;;;;;;0.00;0.00;;;;;;;;;;10249023;28;20082;-65
2023/08/13 13:53:58;;;;;;;0.00;0.00;;;;;;;;;;10250085;28;20489;-65
2023/08/13 13:58:58;;;;;;;0.00;0.00;;;;;;;;;;10248363;28;20027;-65
2023/08/13 14:03:58;;;;;;;0.00;0.00;;;;;;;;;;10248512;28;20019;-65
2023/08/13 14:08:58;;;;;;;0.00;0.00;;;;;;;;;;10248371;28;20011;-65
2023/08/13 14:13:59;;;;;;;0.10;0.10;;;;;;;;;;10247791;28;20023;-65
2023/08/13 14:18:59;;;;;;;0.00;0.00;;;;;;;;;;10247432;28;20027;-66
2023/08/13 14:23:59;;;;;;;0.00;0.00;;;;;;;;;;10246455;28;20478;-65
2023/08/13 14:28:59;;;;;;;0.10;0.10;;;;;;;;;;10247790;28;20011;-66
2023/08/13 14:33:59;;;;;;;0.10;0.10;;;;;;;;;;10247424;28;20026;-65
2023/08/13 14:39:02;;;;;;;0.00;0.00;;;;;;;;;;10247192;28;20074;-66
2023/08/13 14:44:03;;;;;;;0.10;0.10;;;;;;;;;;10247067;28;20074;-65
2023/08/13 14:49:04;;;;;;;0.00;0.00;;;;;;;;;;10249358;28;20368;-67
2023/08/13 14:54:04;;;;;;;0.00;0.00;;;;;;;;;;10249527;28;20414;-66
2023/08/13 14:59:04;;;;;;;0.00;0.00;;;;;;;;;;10245523;28;20057;-67
2023/08/13 15:04:05;;;;;;;0.00;0.00;;;;;;;;;;10242253;28;20020;-65
2023/08/13 15:09:05;;;;;;;0.10;0.10;;;;;;;;;;10253602;28;20093;-66
2023/08/13 15:14:05;;;;;;;0.10;0.10;;;;;;;;;;10246924;28;20443;-65
2023/08/13 15:19:05;;;;;;;0.00;0.00;;;;;;;;;;10246178;28;20024;-65
2023/08/13 15:24:06;;;;;;;0.00;0.00;;;;;;;;;;10249072;28;20027;-65
2023/08/13 15:29:06;;;;;;;0.00;0.00;;;;;;;;;;10243641;28;20047;-66
2023/08/13 15:34:08;;;;;;;0.00;0.00;;;;;;;;;;10245340;28;20335;-65
2023/08/13 15:39:09;;;;;;;0.00;0.00;;;;;;;;;;10248224;28;20022;-65
2023/08/13 15:44:09;;;;;;;0.00;0.00;;;;;;;;;;10246260;28;20029;-64
2023/08/13 15:49:09;;;;;;;0.00;0.00;;;;;;;;;;10245210;28;20530;-64
2023/08/13 15:54:09;;;;;;;0.00;0.00;;;;;;;;;;10292742;22;20045;-64
2023/08/13 15:59:10;;;;;;;0.00;0.00;;;;;;;;;;10343266;28;20025;-64
2023/08/13 16:04:10;;;;;;;0.10;0.10;;;;;;;;;;10350550;28;20034;-64
2023/08/13 16:09:10;;;;;;;0.00;0.00;;;;;;;;;;10334424;28;20030;-64
2023/08/13 16:14:11;;;;;;;0.00;0.00;;;;;;;;;;10346511;28;20021;-64
2023/08/13 16:19:11;;;;;;;0.00;0.00;;;;;;;;;;10352743;28;20072;-64
2023/08/13 16:24:11;;;;;;;0.00;0.00;;;;;;;;;;10350294;28;20040;-64
2023/08/13 16:29:11;;;;;;;0.00;0.00;;;;;;;;;;10332156;28;20508;-64
2023/08/13 16:34:11;;;;;;;0.00;0.00;;;;;;;;;;10348872;28;20026;-64
2023/08/13 16:39:11;;;;;;;0.00;0.00;;;;;;;;;;10364381;28;20029;-64
2023/08/13 16:44:12;;;;;;;0.00;0.00;;;;;;;;;;10342999;28;20153;-64
2023/08/13 16:49:12;;;;;;;0.00;0.00;;;;;;;;;;10349194;28;20015;-64
2023/08/13 16:54:12;;;;;;;0.03;0.03;;;;;;;;;;10339011;28;20457;-64
2023/08/13 16:59:12;;;;;;;0.10;0.10;;;;;;;;;;10350230;28;20046;-64
2023/08/13 17:04:13;;;;;;;0.00;0.00;;;;;;;;;;10343942;28;20046;-64
2023/08/13 17:09:13;;;;;;;0.10;0.10;;;;;;;;;;10333703;28;20015;-64
2023/08/13 17:14:13;;;;;;;0.10;0.10;;;;;;;;;;10346701;28;20030;-65
2023/08/13 17:19:13;;;;;;;0.00;0.00;;;;;;;;;;10359507;28;20040;-64
2023/08/13 17:24:13;;;;;;;0.00;0.00;;;;;;;;;;10345959;28;20014;-63
2023/08/13 17:29:13;;;;;;;0.00;0.00;;;;;;;;;;10332802;28;20088;-63
2023/08/13 17:34:14;;;;;;;0.00;0.00;;;;;;;;;;10343697;28;20505;-63
2023/08/13 17:39:14;;;;;;;0.10;0.10;;;;;;;;;;10346575;28;20030;-64
2023/08/13 17:44:14;;;;;;;0.00;0.00;;;;;;;;;;10356428;28;20075;-64
2023/08/13 17:49:14;;;;;;;0.05;0.05;;;;;;;;;;10364930;28;20017;-63
2023/08/13 17:54:15;;;;;;;0.00;0.00;;;;;;;;;;10360233;28;20404;-63
2023/08/13 17:59:15;;;;;;;0.00;0.00;;;;;;;;;;10353160;28;20026;-63
2023/08/13 18:04:15;;;;;;;0.10;0.10;;;;;;;;;;10339685;28;20045;-62
2023/08/13 18:09:15;;;;;;;0.00;0.00;;;;;;;;;;10342480;28;20030;-62
2023/08/13 18:14:16;;;;;;;0.10;0.10;;;;;;;;;;10355271;28;20101;-62
2023/08/13 18:19:16;;;;;;;0.10;0.10;;;;;;;;;;10360933;28;20105;-63
2023/08/13 18:24:16;;;;;;;0.00;0.00;;;;;;;;;;10344245;28;20528;-62
2023/08/13 18:29:16;;;;;;;0.00;0.00;;;;;;;;;;10349117;28;20022;-62
2023/08/13 18:34:17;;;;;;;0.00;0.00;;;;;;;;;;10352030;28;20080;-62
2023/08/13 18:39:17;;;;;;;0.00;0.00;;;;;;;;;;10327399;28;20461;-62
2023/08/13 18:44:18;;;;;;;0.00;0.00;;;;;;;;;;10343555;28;20117;-63
2023/08/13 18:49:18;;;;;;;0.00;0.00;;;;;;;;;;10332696;28;20113;-62
2023/08/13 18:54:18;;;;;;;0.10;0.10;;;;;;;;;;10356583;28;20033;-62
2023/08/13 18:59:18;;;;;;;0.08;0.08;;;;;;;;;;10354231;28;20032;-62
2023/08/13 19:04:19;;;;;;;0.00;0.00;;;;;;;;;;10350048;28;20038;-62
2023/08/13 19:09:19;;;;;;;0.00;0.00;;;;;;;;;;10341389;28;20028;-62
2023/08/13 19:14:19;;;;;;;0.10;0.10;;;;;;;;;;10356765;28;20484;-63
2023/08/13 19:19:19;;;;;;;0.00;0.00;;;;;;;;;;10333648;28;20026;-63
2023/08/13 19:24:20;;;;;;;0.10;0.10;;;;;;;;;;10348672;28;20018;-63
2023/08/13 19:29:20;;;;;;;0.00;0.00;;;;;;;;;;10340985;28;20092;-63
2023/08/13 19:34:20;;;;;;;0.10;0.10;;;;;;;;;;10341332;28;20022;-63
2023/08/13 19:39:21;;;;;;;0.00;0.00;;;;;;;;;;10340373;28;20377;-63
2023/08/13 19:44:22;;;;;;;0.10;0.10;;;;;;;;;;10338032;28;20337;-63
2023/08/13 19:49:22;;;;;;;0.05;0.05;;;;;;;;;;10325638;28;20025;-62
2023/08/13 19:54:22;;;;;;;0.00;0.00;;;;;;;;;;10323043;28;20022;-63
2023/08/13 19:59:22;;;;;;;0.10;0.10;;;;;;;;;;10340642;28;20022;-63
2023/08/13 20:04:22;;;;;;;0.10;0.10;;;;;;;;;;10324758;28;20049;-63
2023/08/13 20:09:23;;;;;;;0.10;0.10;;;;;;;;;;10327367;28;20331;-63
2023/08/13 20:14:23;;;;;;;0.10;0.10;;;;;;;;;;10331065;28;20019;-62
2023/08/13 20:19:23;;;;;;;0.10;0.10;;;;;;;;;;10336280;28;20042;-63
2023/08/13 20:24:23;;;;;;;0.10;0.10;;;;;;;;;;10339334;28;20022;-63
2023/08/13 20:29:24;;;;;;;0.00;0.00;;;;;;;;;;10347122;28;20014;-62
2023/08/13 20:34:26;;;;;;;0.10;0.10;;;;;;;;;;10344664;28;20288;-62
2023/08/13 20:39:26;;;;;;;0.10;0.10;;;;;;;;;;10353747;28;20045;-63
2023/08/13 20:44:26;;;;;;;0.00;0.00;;;;;;;;;;10353658;28;20025;-62
2023/08/13 20:49:26;;;;;;;0.00;0.00;;;;;;;;;;10345966;28;20488;-63
2023/08/13 20:54:27;;;;;;;0.10;0.10;;;;;;;;;;10346138;28;20370;-63
2023/08/13 20:59:27;;;;;;;0.10;0.10;;;;;;;;;;10330114;28;20018;-63
2023/08/13 21:04:27;;;;;;;0.00;0.00;;;;;;;;;;10347361;28;20018;-62
2023/08/13 21:09:27;;;;;;;0.10;0.10;;;;;;;;;;10337045;28;20042;-62
2023/08/13 21:14:27;;;;;;;0.10;0.10;;;;;;;;;;10328607;28;20037;-62
2023/08/13 21:19:27;;;;;;;0.00;0.00;;;;;;;;;;10335238;28;20097;-62
2023/08/13 21:24:28;;;;;;;0.10;0.10;;;;;;;;;;10333837;28;20022;-62
2023/08/13 21:29:28;;;;;;;0.00;0.00;;;;;;;;;;10328259;28;20342;-63
2023/08/13 21:34:28;;;;;;;0.10;0.10;;;;;;;;;;10327774;28;20023;-62
2023/08/13 21:39:28;;;;;;;0.00;0.00;;;;;;;;;;10335337;28;20101;-62
2023/08/13 21:44:28;;;;;;;0.10;0.10;;;;;;;;;;10334853;28;20112;-61
2023/08/13 21:49:28;;;;;;;0.00;0.00;;;;;;;;;;10344637;28;20014;-61
2023/08/13 21:54:29;;;;;;;0.10;0.10;;;;;;;;;;10346011;28;20029;-61
2023/08/13 21:59:29;;;;;;;0.10;0.10;;;;;;;;;;10367818;28;20449;-62
2023/08/13 22:04:29;;;;;;;0.10;0.10;;;;;;;;;;10368749;28;20499;-62
2023/08/13 22:09:29;;;;;;;0.10;0.10;;;;;;;;;;10369337;28;20029;-63
2023/08/13 22:14:29;;;;;;;0.10;0.10;;;;;;;;;;10367853;28;20056;-62
2023/08/13 22:19:46;;;;;;;0.00;0.00;;;;;;;;;;10367874;28;20018;-61
2023/08/13 22:24:46;;;;;;;0.10;0.10;;;;;;;;;;10355906;28;20478;-62
2023/08/13 22:29:47;;;;;;;0.10;0.10;;;;;;;;;;10363588;28;20014;-62
2023/08/13 22:34:47;;;;;;;0.10;0.10;;;;;;;;;;10365994;28;20472;-62
2023/08/13 22:39:47;;;;;;;0.10;0.10;;;;;;;;;;10370794;22;20132;-64
2023/08/13 22:44:47;;;;;;;0.10;0.10;;;;;;;;;;10331388;28;20025;-64
2023/08/13 22:49:48;;;;;;;0.00;0.00;;;;;;;;;;10357625;28;20044;-64
2023/08/13 22:54:48;;;;;;;0.10;0.10;;;;;;;;;;10352713;28;20022;-64
2023/08/13 22:59:48;;;;;;;0.10;0.10;;;;;;;;;;10357146;28;20021;-63
2023/08/13 23:04:48;;;;;;;0.10;0.10;;;;;;;;;;10354045;28;20026;-64
2023/08/13 23:09:49;;;;;;;0.10;0.10;;;;;;;;;;10358022;28;20010;-63
2023/08/13 23:14:49;;;;;;;0.00;0.00;;;;;;;;;;10352228;28;20038;-63
2023/08/13 23:19:49;;;;;;;0.10;0.10;;;;;;;;;;10356739;28;20025;-63
2023/08/13 23:24:49;;;;;;;0.10;0.10;;;;;;;;;;10357207;28;20539;-63
2023/08/13 23:29:49;;;;;;;0.10;0.10;;;;;;;;;;10351594;28;20017;-63
2023/08/13 23:34:50;;;;;;;0.10;0.10;;;;;;;;;;10358488;28;20026;-64
2023/08/13 23:39:50;;;;;;;0.10;0.10;;;;;;;;;;10359842;28;20036;-65
2023/08/13 23:44:50;;;;;;;0.10;0.10;;;;;;;;;;10362712;28;20076;-64
2023/08/13 23:49:50;;;;;;;0.10;0.10;;;;;;;;;;10367891;28;20034;-65
2023/08/13 23:54:50;;;;;;;0.00;0.00;;;;;;;;;;10367253;28;20017;-63
2023/08/13 23:59:50;;;;;;;0.10;0.10;;;;;;;;;;10362555;28;20014;-64
